Flight Track Log - Related Links

Times and Time Zones

All times are in EDT time to prevent confusion due to time zone crossing. See the N662US flight status page for this flight to view local times or setup timezone preferences in your user account.

Time Position Orientation Groundspeed Altitude Reporting Facility
EDT Latitude Longitude Course Direction KTS MPH feet Rate Location/Type
Sat 06:58:00 PM 13.7593 100.8465 51° Northeast  Level Estimated
Sat 06:59:00 PM 13.8374 100.9457 51° Northeast  Level Estimated
Sat 07:00:00 PM 13.9155 101.0450 51° Northeast  Level Estimated
Sat 07:00:50 PM 13.6550 100.7310 51° Northeast 165 190 1,200  Level FlightAware ADS-B
Sat 07:01:00 PM 13.9935 101.1444 51° Northeast  Level Estimated
Sat 07:01:08 PM 13.6410 100.7270 196° South 172 198 1,600  Level FlightAware ADS-B
Sat 07:01:25 PM 13.6280 100.7240 193° South 171 197 2,100 1,714 Climbing FlightAware ADS-B
Sat 07:01:50 PM 13.6080 100.7180 196° South 177 204 2,800 1,500 Climbing FlightAware ADS-B
Sat 07:02:33 PM 13.5660 100.7310 163° South 226 260 3,800 1,220 Climbing FlightAware ADS-B
Sat 07:02:49 PM 13.5550 100.7460 127° Southeast 246 283 4,000 1,000 Climbing FlightAware ADS-B
Sat 07:03:09 PM 13.5490 100.7680 106° East 263 303 4,400 1,364 Climbing FlightAware ADS-B
Sat 07:03:33 PM 13.5550 100.7980 78° East 276 318 5,000 1,862 Climbing FlightAware ADS-B
Sat 07:04:07 PM 13.5760 100.8390 62° Northeast 295 339 6,200 2,419 Climbing FlightAware ADS-B
Sat 07:04:35 PM 13.5950 100.8720 59° Northeast 299 344 7,500 2,769 Climbing FlightAware ADS-B
Sat 07:04:59 PM 13.6130 100.9030 59° Northeast 306 352 8,600 2,743 Climbing FlightAware ADS-B
Sat 07:05:45 PM 13.6460 100.9620 60° Northeast 309 356 10,700 2,133 Climbing FlightAware ADS-B
Sat 07:06:29 PM 13.6760 101.0150 60° Northeast 338 389 11,800 1,747 Climbing FlightAware ADS-B
Sat 07:07:04 PM 13.7050 101.0650 59° Northeast 361 415 13,000 2,195 Climbing FlightAware ADS-B
Sat 07:07:51 PM 13.7470 101.1390 60° Northeast 382 440 14,800 2,203 Climbing FlightAware ADS-B
Sat 07:08:23 PM 13.7760 101.1860 58° Northeast 395 455 15,900 2,189 Climbing FlightAware ADS-B
Sat 07:09:05 PM 13.8120 101.2620 64° Northeast 410 472 17,500 2,093 Climbing FlightAware ADS-B
Sat 07:09:49 PM 13.8430 101.3430 68° East 432 497 18,900 2,127 Climbing FlightAware ADS-B
Sat 07:10:24 PM 13.8680 101.4110 69° East 434 499 20,300 2,176 Climbing FlightAware ADS-B
Sat 07:11:20 PM 13.9150 101.5340 68° East 454 522 22,200 1,938 Climbing FlightAware ADS-B
Sat 07:12:00 PM 13.9450 101.6130 69° East 462 532 23,400 1,895 Climbing FlightAware ADS-B
Sat 07:12:36 PM 13.9730 101.6870 69° East 465 535 24,600 1,800 Climbing FlightAware ADS-B
Sat 07:13:20 PM 14.0080 101.7810 69° East 475 547 25,800 1,605 Climbing FlightAware ADS-B
Sat 07:14:02 PM 14.0410 101.8690 69° East 481 554 26,900 1,537 Climbing FlightAware ADS-B
Sat 07:14:42 PM 14.0740 101.9550 68° East 490 564 27,900 1,571 Climbing FlightAware ADS-B
Sat 07:15:26 PM 14.1110 102.0540 69° East 494 568 29,100 1,429 Climbing FlightAware ADS-B
Sat 07:16:06 PM 14.1430 102.1430 70° East 501 577 29,900 1,395 Climbing FlightAware ADS-B
Sat 07:16:52 PM 14.1810 102.2430 69° East 501 577 31,100 1,923 Climbing FlightAware ADS-B
Sat 07:17:24 PM 14.2080 102.3140 69° East 490 564 32,400 1,500 Climbing FlightAware ADS-B
Sat 07:18:08 PM 14.2450 102.4110 69° East 486 559 33,000 429 Climbing FlightAware ADS-B
Sat 07:18:48 PM 14.2780 102.4950 68° East 485 558 33,000  Level FlightAware ADS-B
Sat 07:19:33 PM 14.3140 102.5920 69° East 486 559 33,000  Level FlightAware ADS-B
Sat 07:20:12 PM 14.3460 102.6770 69° East 487 560 33,000  Level FlightAware ADS-B
Sat 07:20:56 PM 14.3830 102.7750 69° East 488 562 33,000  Level FlightAware ADS-B
Sat 07:21:37 PM 14.4150 102.8620 69° East 489 563 33,000  Level FlightAware ADS-B
Sat 07:22:13 PM 14.4450 102.9420 69° East 488 562 33,000  Level FlightAware ADS-B
Sat 07:22:53 PM 14.4780 103.0290 69° East 489 563 33,000  Level FlightAware ADS-B
Sat 07:23:37 PM 14.5130 103.1250 69° East 490 564 33,000  Level FlightAware ADS-B
Sat 07:24:13 PM 14.5430 103.2040 69° East 492 566 33,000  Level FlightAware ADS-B
Sat 07:24:53 PM 14.5750 103.2900 69° East 492 566 33,000  Level FlightAware ADS-B
Sat 07:25:33 PM 14.6080 103.3780 69° East 492 566 33,000  Level FlightAware ADS-B
Sat 07:26:15 PM 14.6430 103.4720 69° East 493 567 33,000  Level FlightAware ADS-B
Sat 07:26:57 PM 14.6770 103.5650 69° East 492 566 33,000  Level FlightAware ADS-B
Sat 07:27:41 PM 14.7120 103.6590 69° East 493 567 33,000  Level FlightAware ADS-B
Sat 07:28:25 PM 14.7480 103.7560 69° East 493 567 33,000  Level FlightAware ADS-B
Sat 07:29:01 PM 14.7770 103.8350 69° East 493 567 33,000  Level FlightAware ADS-B
Sat 07:29:41 PM 14.8100 103.9230 69° East 491 565 33,000  Level FlightAware ADS-B
Sat 07:30:21 PM 14.8420 104.0110 69° East 490 564 33,000  Level FlightAware ADS-B
Sat 07:31:02 PM 14.8730 104.0960 69° East 488 562 33,000  Level FlightAware ADS-B
Sat 07:31:37 PM 14.9030 104.1770 69° East 487 560 33,000  Level FlightAware ADS-B
Sat 07:32:21 PM 14.9390 104.2750 69° East 488 562 33,000  Level FlightAware ADS-B
Sat 07:33:02 PM 14.9700 104.3600 69° East 489 563 33,000  Level FlightAware ADS-B
Sat 07:33:46 PM 15.0060 104.4590 69° East 488 562 33,000  Level FlightAware ADS-B
Sat 07:34:25 PM 15.0380 104.5460 69° East 487 560 33,000  Level FlightAware ADS-B
Sat 07:35:09 PM 15.0730 104.6420 69° East 486 559 33,000  Level FlightAware ADS-B
Sat 07:35:51 PM 15.1060 104.7340 70° East 487 560 33,000  Level FlightAware ADS-B
Sat 07:36:35 PM 15.1420 104.8300 69° East 490 564 33,000  Level FlightAware ADS-B
Sat 07:37:17 PM 15.1750 104.9220 70° East 488 562 33,000  Level FlightAware ADS-B
Sat 07:37:59 PM 15.2070 105.0100 69° East 487 560 33,000  Level FlightAware ADS-B
Sat 07:38:39 PM 15.2330 105.0990 73° East 487 560 33,000  Level FlightAware ADS-B
Sat 07:39:23 PM 15.2580 105.2000 76° East 487 560 33,000  Level FlightAware ADS-B
Sat 07:39:57 PM 15.2780 105.2770 75° East 488 562 33,000  Level FlightAware ADS-B
Sat 07:40:42 PM 15.3020 105.3630 74° East 488 562 33,000  Level FlightAware ADS-B
Sat 07:41:18 PM 15.3210 105.4310 74° East 488 562 33,000  Level FlightAware ADS-B
Sat 07:41:55 PM 15.3400 105.5020 74° East 488 562 33,000  Level FlightAware ADS-B
Sat 07:42:43 PM 15.3660 105.5940 74° East 488 562 33,000  Level FlightAware ADS-B
Sat 07:43:25 PM 15.4040 105.7480 76° East 490 564 33,000  Level FlightAware ADS-B
Sat 07:44:07 PM 15.4250 105.8320 75° East 491 565 33,000  Level FlightAware ADS-B
Sat 07:44:43 PM 15.4430 105.9020 75° East 491 565 33,000  Level FlightAware ADS-B
Sat 07:45:29 PM 15.4760 106.0310 75° East 493 567 33,000  Level FlightAware ADS-B
Sat 07:46:08 PM 15.4960 106.1060 75° East 493 567 33,000  Level FlightAware ADS-B
Sat 07:46:59 PM 15.5290 106.2370 75° East 493 567 33,000  Level FlightAware ADS-B
Sat 07:47:36 PM 15.5480 106.3130 75° East 493 567 33,000  Level FlightAware ADS-B
Sat 07:48:24 PM 15.5720 106.4060 75° East 493 567 33,000  Level FlightAware ADS-B
Sat 07:48:59 PM 15.5980 106.5110 76° East 493 567 33,000  Level FlightAware ADS-B
Sat 07:49:40 PM 15.6180 106.5850 74° East 492 566 33,000  Level FlightAware ADS-B
Sat 07:50:25 PM 15.6480 106.7090 76° East 494 568 33,000  Level FlightAware ADS-B
Sat 07:51:12 PM 15.6740 106.8100 75° East 494 568 33,000  Level FlightAware ADS-B
Sat 07:51:48 PM 15.6920 106.8800 75° East 494 568 33,000  Level FlightAware ADS-B
Sat 07:52:49 PM 15.7230 106.9990 75° East 494 568 33,000  Level FlightAware ADS-B
Sat 07:53:25 PM 15.7410 107.0690 75° East 494 568 33,000  Level FlightAware ADS-B
Sat 07:54:13 PM 15.7650 107.1630 75° East 494 568 33,000  Level FlightAware ADS-B
Sat 07:54:49 PM 15.7830 107.2330 75° East 494 568 33,000  Level FlightAware ADS-B
Sat 07:55:37 PM 15.8070 107.3270 75° East 494 568 33,000  Level FlightAware ADS-B
Sat 07:56:13 PM 15.8250 107.3970 75° East 494 568 33,000  Level FlightAware ADS-B
Sat 07:57:01 PM 15.8490 107.4910 75° East 494 568 33,000  Level FlightAware ADS-B
Sat 07:57:37 PM 15.8670 107.5610 75° East 494 568 33,000  Level FlightAware ADS-B
Sat 07:58:25 PM 15.8910 107.6540 75° East 494 568 33,000  Level FlightAware ADS-B
Sat 07:59:01 PM 15.9100 107.7250 74° East 494 568 33,000  Level FlightAware ADS-B
Sat 07:59:37 PM 15.9280 107.7950 75° East 494 568 33,000  Level FlightAware ADS-B
Sat 08:00:25 PM 15.9520 107.8890 75° East 494 568 33,000 69 Level FlightAware ADS-B
Sat 08:03:00 PM 16.1587 108.1401 49° Northeast  Level Estimated
Sat 08:04:00 PM 16.2386 108.2374 49° Northeast  Level Estimated
Sat 08:05:00 PM 16.3185 108.3348 49° Northeast  Level Estimated
Sat 08:06:00 PM 16.3983 108.4323 50° Northeast  Level Estimated
Sat 08:07:00 PM 16.4781 108.5299 50° Northeast  Level Estimated
Sat 08:08:00 PM 16.5578 108.6275 50° Northeast  Level Estimated
Sat 08:09:00 PM 16.6375 108.7253 50° Northeast  Level Estimated
Sat 08:10:00 PM 16.7172 108.8231 50° Northeast  Level Estimated
Sat 08:11:00 PM 16.7968 108.9210 50° Northeast  Level Estimated
Sat 08:12:00 PM 16.8763 109.0189 50° Northeast  Level Estimated
Sat 08:13:00 PM 16.9558 109.1170 50° Northeast  Level Estimated
Sat 08:14:00 PM 17.0353 109.2151 50° Northeast  Level Estimated
Sat 08:15:00 PM 17.1147 109.3133 50° Northeast  Level Estimated
Sat 08:16:00 PM 17.1941 109.4117 50° Northeast  Level Estimated
Sat 08:17:00 PM 17.2734 109.5100 50° Northeast  Level Estimated
Sat 08:18:00 PM 17.3527 109.6085 50° Northeast  Level Estimated
Sat 08:19:00 PM 17.4319 109.7071 50° Northeast  Level Estimated
Sat 08:20:00 PM 17.5111 109.8057 50° Northeast  Level Estimated
Sat 08:21:00 PM 17.5902 109.9045 50° Northeast  Level Estimated
Sat 08:22:00 PM 17.6693 110.0033 50° Northeast  Level Estimated
Sat 08:23:00 PM 17.7483 110.1022 50° Northeast  Level Estimated
Sat 08:24:00 PM 17.8273 110.2012 50° Northeast  Level Estimated
Sat 08:25:00 PM 17.9062 110.3003 50° Northeast  Level Estimated
Sat 08:26:00 PM 17.9851 110.3994 50° Northeast  Level Estimated
Sat 08:27:00 PM 18.0639 110.4987 50° Northeast  Level Estimated
Sat 08:28:00 PM 18.1427 110.5980 50° Northeast  Level Estimated
Sat 08:29:00 PM 18.2215 110.6975 50° Northeast  Level Estimated
Sat 08:30:00 PM 18.3001 110.7970 50° Northeast  Level Estimated
Sat 08:31:00 PM 18.3788 110.8966 50° Northeast  Level Estimated
Sat 08:32:00 PM 18.4573 110.9963 50° Northeast  Level Estimated
Sat 08:33:00 PM 18.5359 111.0961 50° Northeast  Level Estimated
Sat 08:34:00 PM 18.6143 111.1960 50° Northeast  Level Estimated
Sat 08:35:00 PM 18.6928 111.2960 50° Northeast  Level Estimated
Sat 08:36:00 PM 18.7711 111.3961 50° Northeast  Level Estimated
Sat 08:37:00 PM 18.8494 111.4963 50° Northeast  Level Estimated
Sat 08:38:00 PM 18.9277 111.5965 50° Northeast  Level Estimated
Sat 08:39:00 PM 19.0059 111.6969 50° Northeast  Level Estimated
Sat 08:40:00 PM 19.0840 111.7973 51° Northeast  Level Estimated
Sat 08:41:00 PM 19.1621 111.8979 51° Northeast  Level Estimated
Sat 08:42:00 PM 19.2402 111.9985 51° Northeast  Level Estimated
Sat 08:43:00 PM 19.3181 112.0993 51° Northeast  Level Estimated
Sat 08:44:00 PM 19.3961 112.2001 51° Northeast  Level Estimated
Sat 08:45:00 PM 19.4739 112.3010 51° Northeast  Level Estimated
Sat 08:46:00 PM 19.5518 112.4020 51° Northeast  Level Estimated
Sat 08:47:00 PM 19.6295 112.5032 51° Northeast  Level Estimated
Sat 08:48:00 PM 19.7072 112.6044 51° Northeast  Level Estimated
Sat 08:49:00 PM 19.7849 112.7057 51° Northeast  Level Estimated
Sat 08:50:00 PM 19.8625 112.8071 51° Northeast  Level Estimated
Sat 08:51:00 PM 19.9400 112.9086 51° Northeast  Level Estimated
Sat 08:52:00 PM 20.0175 113.0103 51° Northeast  Level Estimated
Sat 08:53:00 PM 20.0949 113.1120 51° Northeast  Level Estimated
Sat 08:54:00 PM 20.1723 113.2138 51° Northeast  Level Estimated
Sat 08:55:00 PM 20.2495 113.3157 51° Northeast  Level Estimated
Sat 08:56:00 PM 20.3268 113.4177 51° Northeast  Level Estimated
Sat 08:57:00 PM 20.4040 113.5199 51° Northeast  Level Estimated
Sat 08:57:25 PM 19.8870 114.7500 51° Northeast 466 536 37,000  Level FlightAware ADS-B
Sat 08:58:00 PM 20.4811 113.6221 51° Northeast  Level Estimated
Sat 08:58:03 PM 19.9180 114.8170 64° Northeast 468 539 37,000  Level FlightAware ADS-B
Sat 08:59:04 PM 19.9690 114.9240 63° Northeast 468 539 37,000  Level FlightAware ADS-B
Sat 08:59:33 PM 20.0080 115.0080 64° Northeast 37,000  Level FlightAware ADS-B
Sat 09:00:20 PM 20.0500 115.0960 63° Northeast 472 543 37,000  Level FlightAware ADS-B
Sat 09:00:56 PM 20.0810 115.1600 63° Northeast 472 543 37,000  Level FlightAware ADS-B
Sat 09:01:32 PM 20.1110 115.2230 63° Northeast 472 543 37,000  Level FlightAware ADS-B
Sat 09:02:20 PM 20.1810 115.3700 63° Northeast 37,000  Level FlightAware ADS-B
Sat 09:02:58 PM 20.2040 115.4200 64° Northeast 472 543 37,000  Level FlightAware ADS-B
Sat 09:03:35 PM 20.2360 115.4860 63° Northeast 472 543 37,000  Level FlightAware ADS-B
Sat 09:04:24 PM 20.2770 115.5720 63° Northeast 472 543 37,000  Level FlightAware ADS-B
Sat 09:05:00 PM 20.3070 115.6350 63° Northeast 472 543 37,000  Level FlightAware ADS-B
Sat 09:05:48 PM 20.3480 115.7200 63° Northeast 472 543 37,000  Level FlightAware ADS-B
Sat 09:06:24 PM 20.3780 115.7840 63° Northeast 472 543 37,000  Level FlightAware ADS-B
Sat 09:07:00 PM 20.4080 115.8470 63° Northeast 472 543 37,000  Level FlightAware ADS-B
Sat 09:07:48 PM 20.4490 115.9320 63° Northeast 472 543 37,000  Level FlightAware ADS-B
Sat 09:08:24 PM 20.4790 115.9950 63° Northeast 472 543 37,000  Level FlightAware ADS-B
Sat 09:09:00 PM 20.5090 116.0590 63° Northeast 472 543 37,000  Level FlightAware ADS-B
Sat 09:09:48 PM 20.5500 116.1440 63° Northeast 472 543 37,000  Level FlightAware ADS-B
Sat 09:10:24 PM 20.5800 116.2070 63° Northeast 472 543 37,000  Level FlightAware ADS-B
Sat 09:11:23 PM 20.6300 116.3120 63° Northeast 472 543 37,000  Level FlightAware ADS-B
Sat 09:11:59 PM 20.6600 116.3750 63° Northeast 472 543 37,000  Level FlightAware ADS-B
Sat 09:14:00 PM 20.8211 116.5746 49° Northeast  Level Estimated
Sat 09:15:00 PM 20.9009 116.6737 49° Northeast  Level Estimated
Sat 09:16:00 PM 20.9806 116.7729 49° Northeast  Level Estimated
Sat 09:17:00 PM 21.0603 116.8722 49° Northeast  Level Estimated
Sat 09:18:00 PM 21.1399 116.9717 49° Northeast  Level Estimated
Sat 09:19:00 PM 21.2195 117.0712 49° Northeast  Level Estimated
Sat 09:20:00 PM 21.2990 117.1709 49° Northeast  Level Estimated
Sat 09:21:00 PM 21.3785 117.2706 49° Northeast  Level Estimated
Sat 09:22:00 PM 21.4579 117.3705 49° Northeast  Level Estimated
Sat 09:22:52 PM 21.2920 117.9800 49° Northeast 480 552 37,000  Level FlightAware ADS-B
Sat 09:23:26 PM 21.3110 118.0560 75° East 482 555 37,000  Level FlightAware ADS-B
Sat 09:24:13 PM 21.3380 118.1620 75° East 484 557 37,000  Level FlightAware ADS-B
Sat 09:25:25 PM 21.3840 118.3400 74° East 485 558 37,000  Level FlightAware ADS-B
Sat 09:26:08 PM 21.4060 118.4280 75° East 484 557 37,000  Level FlightAware ADS-B
Sat 09:26:49 PM 21.4280 118.5270 77° East 483 556 37,000  Level FlightAware ADS-B
Sat 09:27:25 PM 21.4460 118.6130 77° East 483 556 37,000  Level FlightAware ADS-B
Sat 09:28:01 PM 21.4640 118.6950 77° East 484 557 37,000  Level FlightAware ADS-B
Sat 09:28:45 PM 21.4880 118.8100 77° East 484 557 37,000  Level FlightAware ADS-B
Sat 09:29:35 PM 21.5120 118.9170 76° East 483 556 37,000  Level FlightAware ADS-B
Sat 09:30:15 PM 21.5320 119.0080 77° East 480 552 37,000  Level FlightAware ADS-B
Sat 09:30:57 PM 21.5520 119.1060 78° East 479 551 37,000  Level FlightAware ADS-B
Sat 09:31:38 PM 21.5570 119.2010 87° East 480 552 37,000  Level FlightAware ADS-B
Sat 09:32:26 PM 21.5610 119.3170 88° East 480 552 37,000  Level FlightAware ADS-B
Sat 09:33:05 PM 21.5660 119.4080 87° East 481 554 37,000  Level FlightAware ADS-B
Sat 09:33:47 PM 21.5780 119.5150 83° East 485 558 37,000  Level FlightAware ADS-B
Sat 09:34:22 PM 21.5940 119.5950 78° East 486 559 37,000  Level FlightAware ADS-B
Sat 09:35:04 PM 21.6110 119.6930 79° East 487 560 37,000  Level FlightAware ADS-B
Sat 09:35:45 PM 21.6300 119.7900 78° East 489 563 37,000  Level FlightAware ADS-B
Sat 09:36:23 PM 21.6700 119.8750 63° Northeast 493 567 37,000  Level FlightAware ADS-B
Sat 09:36:59 PM 21.6990 119.9550 69° East 493 567 37,000  Level FlightAware ADS-B
Sat 09:37:41 PM 21.7260 120.0540 74° East 494 568 37,000  Level FlightAware ADS-B
Sat 09:38:28 PM 21.7560 120.1700 74° East 496 571 37,000  Level FlightAware ADS-B
Sat 09:39:13 PM 21.7830 120.2750 75° East 497 572 37,000  Level FlightAware ADS-B
Sat 09:39:53 PM 21.8080 120.3700 74° East 497 572 37,000  Level FlightAware ADS-B
Sat 09:40:35 PM 21.8330 120.4680 75° East 498 573 37,000  Level FlightAware ADS-B
Sat 09:41:11 PM 21.8560 120.5570 74° East 497 572 37,000  Level FlightAware ADS-B
Sat 09:41:53 PM 21.8810 120.6590 75° East 495 570 37,000  Level FlightAware ADS-B
Sat 09:42:28 PM 21.9020 120.7400 74° East 493 567 37,000  Level FlightAware ADS-B
Sat 09:43:11 PM 21.9340 120.8440 72° East 491 565 37,000  Level FlightAware ADS-B
Sat 09:43:49 PM 21.9770 120.9200 59° Northeast 494 568 37,000  Level FlightAware ADS-B
Sat 09:44:31 PM 22.0340 121.0060 54° Northeast 490 564 37,000  Level FlightAware ADS-B
Sat 09:45:11 PM 22.0850 121.0830 54° Northeast 488 562 37,000  Level FlightAware ADS-B
Sat 09:45:55 PM 22.1440 121.1700 54° Northeast 484 557 37,000  Level FlightAware ADS-B
Sat 09:46:37 PM 22.1970 121.2520 55° Northeast 482 555 37,000  Level FlightAware ADS-B
Sat 09:47:17 PM 22.2580 121.3260 48° Northeast 486 559 37,000  Level FlightAware ADS-B
Sat 09:48:00 PM 22.3270 121.3940 42° Northeast 486 559 37,000  Level FlightAware ADS-B
Sat 09:48:34 PM 22.3850 121.4490 41° Northeast 487 560 37,000  Level FlightAware ADS-B
Sat 09:49:14 PM 22.4530 121.5150 42° Northeast 489 563 37,000  Level FlightAware ADS-B
Sat 09:50:04 PM 22.5380 121.5950 41° Northeast 490 564 37,000  Level FlightAware ADS-B
Sat 09:50:34 PM 22.5880 121.6400 40° Northeast 490 564 37,000  Level FlightAware ADS-B
Sat 09:51:18 PM 22.6670 121.7140 41° Northeast 491 565 37,000  Level FlightAware ADS-B
Sat 09:51:58 PM 22.7360 121.7780 41° Northeast 491 565 37,000  Level FlightAware ADS-B
Sat 09:52:35 PM 22.8000 121.8370 40° Northeast 490 564 37,000  Level FlightAware ADS-B
Sat 09:53:14 PM 22.8640 121.9040 44° Northeast 489 563 37,000  Level FlightAware ADS-B
Sat 09:53:57 PM 22.9270 121.9800 48° Northeast 487 560 37,000  Level FlightAware ADS-B
Sat 09:54:41 PM 22.9930 122.0700 51° Northeast 486 559 37,000  Level FlightAware ADS-B
Sat 09:55:25 PM 23.0530 122.1610 54° Northeast 486 559 37,000  Level FlightAware ADS-B
Sat 09:56:05 PM 23.1060 122.2350 52° Northeast 489 563 37,000  Level FlightAware ADS-B
Sat 09:56:43 PM 23.1420 122.3080 62° Northeast 485 558 37,000  Level FlightAware ADS-B
Sat 09:57:35 PM 23.1750 122.4240 73° East 486 559 37,000  Level FlightAware ADS-B
Sat 09:58:13 PM 23.1970 122.5040 73° East 486 559 37,000  Level FlightAware ADS-B
Sat 09:58:36 PM 23.2400 122.5610 51° Northeast 488 562 37,000  Level FlightAware ADS-B
Sat 09:59:13 PM 23.2760 122.6260 59° Northeast 488 562 37,000  Level FlightAware ADS-B
Sat 09:59:50 PM 23.3140 122.6920 58° Northeast 488 562 37,000  Level FlightAware ADS-B
Sat 10:00:47 PM 23.3720 122.7930 58° Northeast 488 562 37,000  Level FlightAware ADS-B
Sat 10:01:47 PM 23.4330 122.8990 58° Northeast 488 562 37,000  Level FlightAware ADS-B
Sat 10:02:23 PM 23.4700 122.9630 58° Northeast 488 562 37,000  Level FlightAware ADS-B
Sat 10:03:12 PM 23.5190 123.0500 58° Northeast 488 562 37,000  Level FlightAware ADS-B
Sat 10:03:48 PM 23.5560 123.1140 58° Northeast 488 562 37,000  Level FlightAware ADS-B
Sat 10:04:36 PM 23.6050 123.1990 58° Northeast 488 562 37,000  Level FlightAware ADS-B
Sat 10:05:12 PM 23.6410 123.2630 58° Northeast 488 562 37,000  Level FlightAware ADS-B
Sat 10:05:49 PM 23.6790 123.3290 58° Northeast 488 562 37,000  Level FlightAware ADS-B
Sat 10:06:25 PM 23.7160 123.3930 58° Northeast 488 562 37,000  Level FlightAware ADS-B
Sat 10:07:13 PM 23.7640 123.4780 58° Northeast 488 562 37,000  Level FlightAware ADS-B
Sat 10:07:49 PM 23.8010 123.5420 58° Northeast 488 562 37,000  Level FlightAware ADS-B
Sat 10:08:37 PM 23.8500 123.6280 58° Northeast 488 562 37,000  Level FlightAware ADS-B
Sat 10:11:00 PM 24.0496 123.8603 47° Northeast  Level Estimated
Sat 10:12:00 PM 24.1333 123.9579 47° Northeast  Level Estimated
Sat 10:13:00 PM 24.2169 124.0557 47° Northeast  Level Estimated
Sat 10:14:00 PM 24.3004 124.1536 47° Northeast  Level Estimated
Sat 10:15:00 PM 24.3839 124.2517 47° Northeast  Level Estimated
Sat 10:16:00 PM 24.4673 124.3499 47° Northeast  Level Estimated
Sat 10:17:00 PM 24.5506 124.4482 47° Northeast  Level Estimated
Sat 10:18:00 PM 24.6339 124.5466 47° Northeast  Level Estimated
Sat 10:19:00 PM 24.7171 124.6452 47° Northeast  Level Estimated
Sat 10:20:00 PM 24.8002 124.7439 47° Northeast  Level Estimated
Sat 10:21:00 PM 24.8833 124.8427 47° Northeast  Level Estimated
Sat 10:22:00 PM 24.9663 124.9417 47° Northeast  Level Estimated
Sat 10:23:00 PM 25.0492 125.0408 47° Northeast  Level Estimated
Sat 10:24:00 PM 25.1321 125.1400 47° Northeast  Level Estimated
Sat 10:25:00 PM 25.2150 125.2394 47° Northeast  Level Estimated
Sat 10:26:00 PM 25.2977 125.3389 47° Northeast  Level Estimated
Sat 10:27:00 PM 25.3804 125.4386 47° Northeast  Level Estimated
Sat 10:28:00 PM 25.4630 125.5383 47° Northeast  Level Estimated
Sat 10:29:00 PM 25.5455 125.6383 48° Northeast  Level Estimated
Sat 10:30:00 PM 25.6280 125.7383 48° Northeast  Level Estimated
Sat 10:31:00 PM 25.7104 125.8385 48° Northeast  Level Estimated
Sat 10:32:00 PM 25.7928 125.9388 48° Northeast  Level Estimated
Sat 10:33:00 PM 25.8750 126.0393 48° Northeast  Level Estimated
Sat 10:34:00 PM 25.9573 126.1399 48° Northeast  Level Estimated
Sat 10:34:23 PM 26.0270 126.8170 48° Northeast 474 545 37,000  Level FlightAware ADS-B
Sat 10:35:08 PM 26.0880 126.9000 51° Northeast 473 544 37,000  Level FlightAware ADS-B
Sat 10:35:48 PM 26.1410 126.9730 51° Northeast 473 544 37,000  Level FlightAware ADS-B
Sat 10:36:33 PM 26.2020 127.0570 51° Northeast 474 545 37,000  Level FlightAware ADS-B
Sat 10:37:08 PM 26.2550 127.1310 51° Northeast 474 545 37,000  Level FlightAware ADS-B
Sat 10:37:48 PM 26.3100 127.2050 50° Northeast 475 547 37,000  Level FlightAware ADS-B
Sat 10:38:28 PM 26.3660 127.2830 51° Northeast 474 545 37,000  Level FlightAware ADS-B
Sat 10:39:08 PM 26.4180 127.3540 51° Northeast 475 547 37,000  Level FlightAware ADS-B
Sat 10:39:48 PM 26.4760 127.4340 51° Northeast 476 548 37,000  Level FlightAware ADS-B
Sat 10:40:28 PM 26.5320 127.5130 52° Northeast 477 549 37,000  Level FlightAware ADS-B
Sat 10:41:08 PM 26.5850 127.5860 51° Northeast 477 549 37,000  Level FlightAware ADS-B
Sat 10:41:53 PM 26.6490 127.6760 51° Northeast 478 550 37,000  Level FlightAware ADS-B
Sat 10:42:33 PM 26.7050 127.7530 51° Northeast 477 549 37,000  Level FlightAware ADS-B
Sat 10:43:13 PM 26.7600 127.8300 51° Northeast 477 549 37,000  Level FlightAware ADS-B
Sat 10:43:58 PM 26.8190 127.9130 51° Northeast 475 547 37,000  Level FlightAware ADS-B
Sat 10:44:33 PM 26.8640 127.9750 51° Northeast 475 547 37,000  Level FlightAware ADS-B
Sat 10:45:13 PM 26.9240 128.0610 52° Northeast 475 547 37,000  Level FlightAware ADS-B
Sat 10:45:53 PM 26.9790 128.1370 51° Northeast 475 547 37,000  Level FlightAware ADS-B
Sat 10:46:30 PM 27.0220 128.1990 52° Northeast 475 547 37,000  Level FlightAware ADS-B
Sat 10:47:13 PM 27.0890 128.2930 51° Northeast 473 544 37,000  Level FlightAware ADS-B
Sat 10:47:58 PM 27.1500 128.3790 51° Northeast 473 544 37,000  Level FlightAware ADS-B
Sat 10:48:48 PM 27.2130 128.4690 52° Northeast 472 543 37,000  Level FlightAware ADS-B
Sat 10:49:38 PM 27.2710 128.5520 52° Northeast 472 543 37,000  Level FlightAware ADS-B
Sat 10:50:34 PM 27.3520 128.6660 51° Northeast 470 541 37,000  Level FlightAware ADS-B
Sat 10:51:10 PM 27.3930 128.7250 52° Northeast 470 541 37,000  Level FlightAware ADS-B
Sat 10:52:03 PM 27.4780 128.8460 52° Northeast 469 540 37,000  Level FlightAware ADS-B
Sat 10:52:55 PM 27.5370 128.9310 52° Northeast 469 540 37,000  Level FlightAware ADS-B
Sat 10:53:31 PM 27.5780 128.9900 52° Northeast 469 540 37,000  Level FlightAware ADS-B
Sat 10:54:19 PM 27.6320 129.0690 52° Northeast 469 540 37,000  Level FlightAware ADS-B
Sat 10:54:55 PM 27.6730 129.1280 52° Northeast 469 540 37,000  Level FlightAware ADS-B
Sat 10:55:28 PM 27.7570 129.2460 51° Northeast 37,000  Level FlightAware ADS-B
Sat 10:58:00 PM 27.9682 129.5023 47° Northeast  Level Estimated
Sat 10:59:00 PM 28.0514 129.6037 47° Northeast  Level Estimated
Sat 11:00:00 PM 28.1345 129.7053 47° Northeast  Level Estimated
Sat 11:01:00 PM 28.2176 129.8071 47° Northeast  Level Estimated
Sat 11:02:00 PM 28.3006 129.9090 47° Northeast  Level Estimated
Sat 11:03:00 PM 28.3835 130.0110 47° Northeast  Level Estimated
Sat 11:04:00 PM 28.4664 130.1133 47° Northeast  Level Estimated
Sat 11:05:00 PM 28.5492 130.2157 47° Northeast  Level Estimated
Sat 11:06:00 PM 28.6318 130.3182 47° Northeast  Level Estimated
Sat 11:07:00 PM 28.7145 130.4209 47° Northeast  Level Estimated
Sat 11:08:00 PM 28.7970 130.5238 48° Northeast  Level Estimated
Sat 11:09:00 PM 28.8795 130.6268 48° Northeast  Level Estimated
Sat 11:10:00 PM 28.9618 130.7300 48° Northeast  Level Estimated
Sat 11:11:00 PM 29.0441 130.8334 48° Northeast  Level Estimated
Sat 11:12:00 PM 29.1264 130.9369 48° Northeast  Level Estimated
Sat 11:13:00 PM 29.2085 131.0406 48° Northeast  Level Estimated
Sat 11:14:00 PM 29.2906 131.1445 48° Northeast  Level Estimated
Sat 11:15:00 PM 29.3725 131.2485 48° Northeast  Level Estimated
Sat 11:16:00 PM 29.4544 131.3527 48° Northeast  Level Estimated
Sat 11:17:00 PM 29.5363 131.4571 48° Northeast  Level Estimated
Sat 11:18:00 PM 29.6180 131.5616 48° Northeast  Level Estimated
Sat 11:19:00 PM 29.6997 131.6663 48° Northeast  Level Estimated
Sat 11:20:00 PM 29.7817 131.7718 48° Northeast  Level Estimated
Sat 11:21:00 PM 29.8637 131.8775 48° Northeast  Level Estimated
Sat 11:22:00 PM 29.9456 131.9833 48° Northeast  Level Estimated
Sat 11:23:00 PM 30.0274 132.0893 48° Northeast  Level Estimated
Sat 11:24:00 PM 30.1091 132.1955 48° Northeast  Level Estimated
Sat 11:25:00 PM 30.1907 132.3019 48° Northeast  Level Estimated
Sat 11:26:00 PM 30.2723 132.4084 48° Northeast  Level Estimated
Sat 11:27:00 PM 30.3537 132.5151 48° Northeast  Level Estimated
Sat 11:28:00 PM 30.4351 132.6220 49° Northeast  Level Estimated
Sat 11:29:00 PM 30.5164 132.7291 49° Northeast  Level Estimated
Sat 11:30:00 PM 30.5976 132.8363 49° Northeast  Level Estimated
Sat 11:31:00 PM 30.6787 132.9438 49° Northeast  Level Estimated
Sat 11:32:00 PM 30.7597 133.0514 49° Northeast  Level Estimated
Sat 11:33:00 PM 30.8407 133.1592 49° Northeast  Level Estimated
Sat 11:34:00 PM 30.9215 133.2672 49° Northeast  Level Estimated
Sat 11:35:00 PM 31.0023 133.3753 49° Northeast  Level Estimated
Sat 11:36:00 PM 31.0829 133.4836 49° Northeast  Level Estimated
Sat 11:37:00 PM 31.1635 133.5922 49° Northeast  Level Estimated
Sat 11:38:00 PM 31.2440 133.7009 49° Northeast  Level Estimated
Sat 11:39:00 PM 31.3244 133.8098 49° Northeast  Level Estimated
Sat 11:40:00 PM 31.4046 133.9189 49° Northeast  Level Estimated
Sat 11:41:00 PM 31.4848 134.0281 49° Northeast  Level Estimated
Sat 11:42:00 PM 31.5650 134.1376 49° Northeast  Level Estimated
Sat 11:42:00 PM 31.6130 134.9180 49° Northeast 493 567 37,000  Level FlightAware ADS-B
Sat 11:42:37 PM 31.6620 134.9920 52° Northeast 494 568 37,000  Level FlightAware ADS-B
Sat 11:43:27 PM 31.7250 135.0870 52° Northeast 494 568 37,000  Level FlightAware ADS-B
Sat 11:44:09 PM 31.7880 135.1840 53° Northeast 493 567 37,000  Level FlightAware ADS-B
Sat 11:44:46 PM 31.8500 135.2770 52° Northeast 492 566 37,000  Level FlightAware ADS-B
Sat 11:45:31 PM 31.9110 135.3710 53° Northeast 492 566 37,000  Level FlightAware ADS-B
Sat 11:46:07 PM 31.9610 135.4450 51° Northeast 492 566 37,000  Level FlightAware ADS-B
Sat 11:46:46 PM 32.0140 135.5280 53° Northeast 491 565 37,000  Level FlightAware ADS-B
Sat 11:47:31 PM 32.0790 135.6250 52° Northeast 492 566 37,000  Level FlightAware ADS-B
Sat 11:48:06 PM 32.1270 135.7000 53° Northeast 491 565 37,000  Level FlightAware ADS-B
Sat 11:48:46 PM 32.1820 135.7850 53° Northeast 492 566 37,000  Level FlightAware ADS-B
Sat 11:49:31 PM 32.2450 135.8810 52° Northeast 492 566 37,000  Level FlightAware ADS-B
Sat 11:50:24 PM 32.3150 135.9900 53° Northeast 487 560 37,000  Level FlightAware ADS-B
Sat 11:51:04 PM 32.3690 136.0730 52° Northeast 487 560 37,000  Level FlightAware ADS-B
Sat 11:51:56 PM 32.4340 136.1730 52° Northeast 486 559 37,000  Level FlightAware ADS-B
Sat 11:52:44 PM 32.4990 136.2770 53° Northeast 492 566 37,000  Level FlightAware ADS-B
Sat 11:53:21 PM 32.5420 136.3450 53° Northeast 492 566 37,000  Level FlightAware ADS-B
Sat 11:53:55 PM 32.5860 136.4520 64° Northeast 492 566 37,000  Level FlightAware ADS-B
Sat 11:55:07 PM 32.6740 136.6200 58° Northeast 492 566 37,000  Level FlightAware ADS-B
Sat 11:55:42 PM 32.7170 136.7000 57° Northeast 492 566 37,000  Level FlightAware ADS-B
Sat 11:56:27 PM 32.7710 136.8030 58° Northeast 492 566 37,000  Level FlightAware ADS-B
Sat 11:57:07 PM 32.8210 136.8970 58° Northeast 494 568 37,000  Level FlightAware ADS-B
Sat 11:57:52 PM 32.8740 136.9990 58° Northeast 495 570 37,000  Level FlightAware ADS-B
Sat 11:58:37 PM 32.9320 137.1100 58° Northeast 495 570 37,000  Level FlightAware ADS-B
Sat 11:59:14 PM 32.9760 137.1930 58° Northeast 494 568 37,000  Level FlightAware ADS-B
Sat 11:59:59 PM 33.0290 137.2950 58° Northeast 496 571 37,000  Level FlightAware ADS-B
Sun 12:00:34 AM 33.0710 137.3790 59° Northeast 496 571 37,000  Level FlightAware ADS-B
Sun 12:01:14 AM 33.1200 137.4720 58° Northeast 497 572 37,000  Level FlightAware ADS-B
Sun 12:01:59 AM 33.1720 137.5730 58° Northeast 498 573 37,000  Level FlightAware ADS-B
Sun 12:02:27 AM 33.2040 137.6340 58° Northeast 498 573 37,000  Level FlightAware ADS-B
Sun 12:03:10 AM 33.2570 137.7390 59° Northeast 500 575 37,000  Level FlightAware ADS-B
Sun 12:03:59 AM 33.3200 137.8600 58° Northeast 501 577 37,000  Level FlightAware ADS-B
Sun 12:04:39 AM 33.3680 137.9550 59° Northeast 502 578 37,000  Level FlightAware ADS-B
Sun 12:05:19 AM 33.4160 138.0500 59° Northeast 502 578 37,000  Level FlightAware ADS-B
Sun 12:05:59 AM 33.4630 138.1420 58° Northeast 502 578 37,000  Level FlightAware ADS-B
Sun 12:06:39 AM 33.5110 138.2380 59° Northeast 504 580 37,000  Level FlightAware ADS-B
Sun 12:07:20 AM 33.5610 138.3360 59° Northeast 504 580 37,000  Level FlightAware ADS-B
Sun 12:07:59 AM 33.6100 138.4310 58° Northeast 505 581 37,000  Level FlightAware ADS-B
Sun 12:08:44 AM 33.6640 138.5390 59° Northeast 505 581 37,000  Level FlightAware ADS-B
Sun 12:09:19 AM 33.7060 138.6230 59° Northeast 506 582 37,000  Level FlightAware ADS-B
Sun 12:10:00 AM 33.7550 138.7220 59° Northeast 506 582 37,000  Level FlightAware ADS-B
Sun 12:10:40 AM 33.8040 138.8190 59° Northeast 506 582 37,000  Level FlightAware ADS-B
Sun 12:11:19 AM 33.8470 138.9060 59° Northeast 507 583 37,000  Level FlightAware ADS-B
Sun 12:11:56 AM 33.8950 139.0030 59° Northeast 507 583 37,000  Level FlightAware ADS-B
Sun 12:12:43 AM 33.9510 139.1170 59° Northeast 508 585 37,000  Level FlightAware ADS-B
Sun 12:13:23 AM 33.9990 139.2170 60° Northeast 507 583 37,000  Level FlightAware ADS-B
Sun 12:14:04 AM 34.0480 139.3140 59° Northeast 507 583 37,000  Level FlightAware ADS-B
Sun 12:14:49 AM 34.1020 139.4260 60° Northeast 507 583 37,000  Level FlightAware ADS-B
Sun 12:15:10 AM 34.1260 139.4750 59° Northeast 507 583 37,000  Level FlightAware ADS-B
Sun 12:16:20 AM 34.2090 139.6430 59° Northeast 507 583 37,000 -275 Level FlightAware ADS-B
Sun 12:16:59 AM 34.2570 139.7430 60° Northeast 505 581 36,500 -1,050 Descending FlightAware ADS-B
Sun 12:17:40 AM 34.3050 139.8410 59° Northeast 506 582 35,600 -1,500 Descending FlightAware ADS-B
Sun 12:18:19 AM 34.3500 139.9350 60° Northeast 493 567 34,500 -1,976 Descending FlightAware ADS-B
Sun 12:19:05 AM 34.4040 140.0440 59° Northeast 490 564 32,800 -2,207 Descending FlightAware ADS-B
Sun 12:19:46 AM 34.4540 140.1380 57° Northeast 486 559 31,300 -2,259 Descending FlightAware ADS-B
Sun 12:20:30 AM 34.5070 140.2390 57° Northeast 481 554 29,600 -2,400 Descending FlightAware ADS-B
Sun 12:21:06 AM 34.5490 140.3210 58° Northeast 469 540 28,100 -2,475 Descending FlightAware ADS-B
Sun 12:21:50 AM 34.6000 140.4210 58° Northeast 463 533 26,300 -2,400 Descending FlightAware ADS-B
Sun 12:22:26 AM 34.6380 140.4930 57° Northeast 451 519 24,900 -2,250 Descending FlightAware ADS-B
Sun 12:23:10 AM 34.6640 140.6060 74° East 439 505 23,300 -1,341 Descending FlightAware ADS-B
Sun 12:23:51 AM 34.6720 140.7030 84° East 418 481 23,000 -767 Descending FlightAware ADS-B
Sun 12:24:36 AM 34.6820 140.8050 83° East 409 471 22,200 -1,500 Descending FlightAware ADS-B
Sun 12:25:15 AM 34.6960 140.8940 79° East 399 459 20,900 -1,852 Descending FlightAware ADS-B
Sun 12:25:57 AM 34.7400 140.9640 53° Northeast 390 449 19,700 -1,579 Descending FlightAware ADS-B
Sun 12:26:12 AM 34.7650 140.9830 32° Northeast 387 445 19,400 -1,176 Descending FlightAware ADS-B
Sun 12:26:48 AM 34.8280 141.0010 13° North 375 432 18,700 -1,313 Descending FlightAware ADS-B
Sun 12:27:16 AM 34.8760 140.9970 356° North 364 419 18,000 -1,644 Descending FlightAware ADS-B
Sun 12:28:01 AM 34.9430 140.9630 337° Northwest 346 398 16,700 -1,769 Descending FlightAware ADS-B
Sun 12:28:34 AM 34.9890 140.9320 331° Northwest 336 387 15,700 -1,792 Descending FlightAware ADS-B
Sun 12:29:18 AM 35.0470 140.8900 329° Northwest 326 375 14,400 -1,786 Descending FlightAware ADS-B
Sun 12:29:58 AM 35.0970 140.8540 330° Northwest 319 367 13,200 -1,816 Descending FlightAware ADS-B
Sun 12:30:34 AM 35.1450 140.8190 329° Northwest 312 359 12,100 -1,658 Descending FlightAware ADS-B
Sun 12:31:14 AM 35.1940 140.7850 330° Northwest 313 360 11,100 -706 Descending FlightAware ADS-B
Sun 12:31:59 AM 35.2500 140.7480 332° Northwest 310 357 11,100  Level FlightAware ADS-B
Sun 12:32:10 AM 35.2680 140.7440 350° North 314 361 11,100  Level FlightAware ADS-B
Sun 12:32:35 AM 35.3030 140.7460 North 323 372 11,100  Level FlightAware ADS-B
Sun 12:33:20 AM 35.3700 140.7550 North 321 369 11,100 -282 Level FlightAware ADS-B
Sun 12:34:00 AM 35.4300 140.7630 North 311 358 10,700 -776 Descending FlightAware ADS-B
Sun 12:34:45 AM 35.4940 140.7710 North 289 333 10,000 -750 Descending FlightAware ADS-B
Sun 12:34:56 AM 35.5090 140.7720 North 278 320 10,000 -522 Level FlightAware ADS-B
Sun 12:35:31 AM 35.5540 140.7780 North 257 296 9,600 -923 Descending FlightAware ADS-B
Sun 12:36:01 AM 35.5890 140.7820 North 262 302 9,000 -1,393 Descending FlightAware ADS-B
Sun 12:36:27 AM 35.6200 140.7860 North 258 297 8,300 -982 Descending FlightAware ADS-B
Sun 12:36:56 AM 35.6580 140.7910 North 263 303 8,100 -211 Descending FlightAware ADS-B
Sun 12:37:24 AM 35.6890 140.7950 North 261 300 8,100 -592 Level FlightAware ADS-B
Sun 12:38:07 AM 35.7400 140.7830 349° North 253 291 7,400 -870 Descending FlightAware ADS-B
Sun 12:38:33 AM 35.7660 140.7610 326° Northwest 238 274 7,100 -346 Descending FlightAware ADS-B
Sun 12:38:59 AM 35.7900 140.7410 326° Northwest 246 283 7,100  Level FlightAware ADS-B
Sun 12:39:18 AM 35.8060 140.7230 318° Northwest 246 283 7,100  Level FlightAware ADS-B
Sun 12:39:34 AM 35.8170 140.7040 306° West 244 281 7,100  Level FlightAware ADS-B
Sun 12:39:59 AM 35.8330 140.6760 305° West 243 280 7,100 -536 Level FlightAware ADS-B
Sun 12:40:30 AM 35.8520 140.6400 303° West 240 276 6,600 -1,000 Descending FlightAware ADS-B
Sun 12:40:59 AM 35.8710 140.6080 306° West 241 277 6,100 -577 Descending FlightAware ADS-B
Sun 12:41:22 AM 35.8850 140.5800 302° West 239 275 6,100  Level FlightAware ADS-B
Sun 12:41:54 AM 35.9050 140.5450 305° West 237 273 6,100  Level FlightAware ADS-B
Sun 12:42:22 AM 35.9220 140.5140 304° West 219 252 6,100  Level FlightAware ADS-B
Sun 12:42:35 AM 35.9290 140.5010 304° West 214 246 6,100 -714 Level FlightAware ADS-B
Sun 12:43:04 AM 35.9400 140.4690 293° West 208 239 5,600 -1,263 Descending FlightAware ADS-B
Sun 12:43:32 AM 35.9510 140.4380 294° West 211 243 4,900 -1,500 Descending FlightAware ADS-B
Sun 12:43:52 AM 35.9560 140.4150 285° West 213 245 4,400 -1,125 Descending FlightAware ADS-B
Sun 12:44:20 AM 35.9520 140.3810 262° West 204 235 4,000 -1,071 Descending FlightAware ADS-B
Sun 12:44:48 AM 35.9480 140.3490 261° West 199 229 3,400 -1,179 Descending FlightAware ADS-B
Sun 12:45:16 AM 35.9440 140.3170 261° West 207 238 2,900 -682 Descending FlightAware ADS-B
Sun 12:45:32 AM 35.9380 140.3010 245° Southwest 207 238 2,900  Level FlightAware ADS-B
Sun 12:46:00 AM 35.9160 140.2800 218° Southwest 207 238 2,900  Level FlightAware ADS-B
Sun 12:46:12 AM 35.9060 140.2780 189° South 206 237 2,900 -474 Level FlightAware ADS-B
Sun 12:46:38 AM 35.8860 140.2870 160° South 192 221 2,600 -808 Descending FlightAware ADS-B
Sun 12:47:04 AM 35.8670 140.3010 149° Southeast 172 198 2,200 -977 Descending FlightAware ADS-B
Sun 12:47:21 AM 35.8530 140.3110 150° Southeast 166 191 1,900 -913 Descending FlightAware ADS-B
Sun 12:47:50 AM 35.8340 140.3250 149° Southeast 159 183 1,500 -842 Descending FlightAware ADS-B
Sun 12:48:18 AM 35.8160 140.3370 152° Southeast 156 180 1,100 -750 Descending FlightAware ADS-B
Sun 12:48:46 AM 35.7990 140.3500 148° Southeast 155 178 800 -692 Descending FlightAware ADS-B
Sun 12:49:10 AM 35.7840 140.3610 149° Southeast 156 180 500 -750 Descending FlightAware ADS-B

Login

Don't have an account? Register now (free) for customized features, flight alerts, and more!